ポンタ・デルガダ の空港の天気 - METARとTAF

ポンタ・デルガダ空港 ( LPPD / PDL ) - ポルトガル ポンタ・デルガダ (サンミゲル島)
飛行場実況気象(Metar)
観測時間08/14 05:00 AZOST (08/14 05:00 UTC)
風向・風速北 2m/s
視程10km以上
天気現象
少しの雲 雲底高度 550m
全天の4割程度の雲 雲底高度 1370m
気温20℃
湿度83%
気圧1023hPa
METARLPPD 140500Z 36004KT 340V040 9999 FEW018 SCT045 20/17 Q1023
過去の天気等 Google飛行場航空写真 Wunderground天気予報

過去48時間のMETAR

飛行場予報(TAF)
発表時間: 8/13 23:00 AZOST (8/13 23:00 UTC)
予報対象時間: 14日0時 AZOST ~ 15日0時 AZOST
風向・風速不定 3m/s
視程10km以上
少しの雲 雲底高度 610m
14日0時 AZOST ~ 14日2時 AZOST に徐々に
全天の4割程度の雲 雲底高度 550m
全天の8割程度の雲 雲底高度 1070m
14日0時 AZOST ~ 14日12時 AZOST に 確率 30% で一時的に
視程5000m
天気現象弱い雨霧雨
全天の4割程度の雲 雲底高度 180m
全天の8割程度の雲 雲底高度 300m
14日10時 AZOST ~ 14日12時 AZOST に徐々に
風向・風速西 5m/s
TAF LPPD 132300Z 1400/1424 VRB05KT 9999 FEW020
BECMG 1400/1402 SCT018 BKN035
PROB30 TEMPO 1400/1412 5000 -RADZ SCT006 BKN010
BECMG 1410/1412 27010KT